sensor_id;sensor_type;location;lat;lon;timestamp;P1;durP1;ratioP1;P2;durP2;ratioP2
7205;SDS011;3644;53.480;10.004;2023-08-31T00:01:39;7.90;;;6.20;;
7205;SDS011;3644;53.480;10.004;2023-08-31T00:04:06;9.47;;;6.30;;
7205;SDS011;3644;53.480;10.004;2023-08-31T00:06:35;8.03;;;6.10;;
7205;SDS011;3644;53.480;10.004;2023-08-31T00:09:01;7.27;;;5.67;;
7205;SDS011;3644;53.480;10.004;2023-08-31T00:11:29;9.30;;;6.93;;
7205;SDS011;3644;53.480;10.004;2023-08-31T00:13:55;7.03;;;5.93;;
7205;SDS011;3644;53.480;10.004;2023-08-31T00:16:23;7.37;;;6.67;;
7205;SDS011;3644;53.480;10.004;2023-08-31T00:18:50;8.57;;;7.30;;
7205;SDS011;3644;53.480;10.004;2023-08-31T00:21:16;9.40;;;7.50;;
7205;SDS011;3644;53.480;10.004;2023-08-31T00:23:41;11.33;;;7.80;;
7205;SDS011;3644;53.480;10.004;2023-08-31T00:26:07;11.07;;;8.10;;
7205;SDS011;3644;53.480;10.004;2023-08-31T00:28:34;15.73;;;8.50;;
7205;SDS011;3644;53.480;10.004;2023-08-31T00:31:02;9.47;;;7.13;;
7205;SDS011;3644;53.480;10.004;2023-08-31T00:33:28;10.70;;;7.70;;
7205;SDS011;3644;53.480;10.004;2023-08-31T00:35:54;10.27;;;8.50;;
7205;SDS011;3644;53.480;10.004;2023-08-31T00:38:21;8.57;;;7.10;;
7205;SDS011;3644;53.480;10.004;2023-08-31T00:40:46;12.63;;;8.83;;
7205;SDS011;3644;53.480;10.004;2023-08-31T00:43:15;12.30;;;9.17;;
7205;SDS011;3644;53.480;10.004;2023-08-31T00:45:40;8.40;;;7.10;;
7205;SDS011;3644;53.480;10.004;2023-08-31T00:48:07;9.77;;;8.30;;
7205;SDS011;3644;53.480;10.004;2023-08-31T00:50:33;9.03;;;7.40;;
7205;SDS011;3644;53.480;10.004;2023-08-31T00:52:59;11.27;;;8.50;;
7205;SDS011;3644;53.480;10.004;2023-08-31T00:55:24;10.23;;;8.07;;
7205;SDS011;3644;53.480;10.004;2023-08-31T00:57:51;11.93;;;8.07;;
7205;SDS011;3644;53.480;10.004;2023-08-31T01:00:16;13.00;;;8.70;;
7205;SDS011;3644;53.480;10.004;2023-08-31T01:08:26;8.30;;;7.50;;
7205;SDS011;3644;53.480;10.004;2023-08-31T01:14:07;11.27;;;6.43;;
7205;SDS011;3644;53.480;10.004;2023-08-31T01:16:43;10.60;;;7.03;;
7205;SDS011;3644;53.480;10.004;2023-08-31T01:19:17;10.47;;;7.60;;
7205;SDS011;3644;53.480;10.004;2023-08-31T01:22:11;12.67;;;6.30;;
7205;SDS011;3644;53.480;10.004;2023-08-31T01:24:42;10.07;;;6.30;;
7205;SDS011;3644;53.480;10.004;2023-08-31T01:27:08;8.87;;;6.97;;
7205;SDS011;3644;53.480;10.004;2023-08-31T01:29:35;18.53;;;6.33;;
7205;SDS011;3644;53.480;10.004;2023-08-31T01:32:00;7.90;;;6.53;;
7205;SDS011;3644;53.480;10.004;2023-08-31T01:34:29;9.40;;;6.20;;
7205;SDS011;3644;53.480;10.004;2023-08-31T01:36:56;12.57;;;6.90;;
7205;SDS011;3644;53.480;10.004;2023-08-31T01:39:46;6.67;;;5.80;;
7205;SDS011;3644;53.480;10.004;2023-08-31T01:42:17;9.43;;;5.73;;
7205;SDS011;3644;53.480;10.004;2023-08-31T01:44:43;10.83;;;6.27;;
7205;SDS011;3644;53.480;10.004;2023-08-31T01:47:13;9.30;;;6.30;;
7205;SDS011;3644;53.480;10.004;2023-08-31T01:49:41;11.07;;;6.53;;
7205;SDS011;3644;53.480;10.004;2023-08-31T01:52:08;9.93;;;5.57;;
7205;SDS011;3644;53.480;10.004;2023-08-31T01:54:34;8.83;;;5.50;;
7205;SDS011;3644;53.480;10.004;2023-08-31T01:56:59;6.03;;;5.40;;
7205;SDS011;3644;53.480;10.004;2023-08-31T01:59:25;11.50;;;7.17;;
7205;SDS011;3644;53.480;10.004;2023-08-31T02:01:52;5.97;;;5.30;;
7205;SDS011;3644;53.480;10.004;2023-08-31T02:04:17;8.77;;;6.43;;
7205;SDS011;3644;53.480;10.004;2023-08-31T02:06:43;8.30;;;5.80;;
7205;SDS011;3644;53.480;10.004;2023-08-31T02:09:08;7.23;;;5.17;;
7205;SDS011;3644;53.480;10.004;2023-08-31T02:11:34;8.50;;;5.60;;
7205;SDS011;3644;53.480;10.004;2023-08-31T02:14:03;6.53;;;5.40;;
7205;SDS011;3644;53.480;10.004;2023-08-31T02:16:29;8.07;;;5.80;;
7205;SDS011;3644;53.480;10.004;2023-08-31T02:18:55;15.57;;;5.90;;
7205;SDS011;3644;53.480;10.004;2023-08-31T02:21:20;7.73;;;5.97;;
7205;SDS011;3644;53.480;10.004;2023-08-31T02:23:46;6.37;;;4.63;;
7205;SDS011;3644;53.480;10.004;2023-08-31T02:26:11;5.60;;;4.93;;
7205;SDS011;3644;53.480;10.004;2023-08-31T02:28:37;5.90;;;5.27;;
7205;SDS011;3644;53.480;10.004;2023-08-31T02:31:03;6.87;;;5.50;;
7205;SDS011;3644;53.480;10.004;2023-08-31T02:33:28;5.57;;;4.87;;
7205;SDS011;3644;53.480;10.004;2023-08-31T02:35:54;7.07;;;5.53;;
7205;SDS011;3644;53.480;10.004;2023-08-31T02:38:20;7.70;;;5.30;;
7205;SDS011;3644;53.480;10.004;2023-08-31T02:40:46;8.27;;;5.30;;
7205;SDS011;3644;53.480;10.004;2023-08-31T02:43:12;6.33;;;5.13;;
7205;SDS011;3644;53.480;10.004;2023-08-31T02:45:38;5.87;;;4.70;;
7205;SDS011;3644;53.480;10.004;2023-08-31T02:48:04;7.00;;;5.70;;
7205;SDS011;3644;53.480;10.004;2023-08-31T02:50:31;5.20;;;3.60;;
7205;SDS011;3644;53.480;10.004;2023-08-31T02:52:57;4.80;;;4.33;;
7205;SDS011;3644;53.480;10.004;2023-08-31T02:55:22;6.20;;;4.47;;
7205;SDS011;3644;53.480;10.004;2023-08-31T02:57:48;4.87;;;4.37;;
7205;SDS011;3644;53.480;10.004;2023-08-31T03:00:13;6.40;;;4.80;;
7205;SDS011;3644;53.480;10.004;2023-08-31T03:02:40;5.60;;;4.70;;
7205;SDS011;3644;53.480;10.004;2023-08-31T03:05:05;7.53;;;5.13;;
7205;SDS011;3644;53.480;10.004;2023-08-31T03:07:31;9.30;;;5.73;;
7205;SDS011;3644;53.480;10.004;2023-08-31T03:09:57;8.73;;;5.00;;
7205;SDS011;3644;53.480;10.004;2023-08-31T03:12:23;6.47;;;5.10;;
7205;SDS011;3644;53.480;10.004;2023-08-31T03:14:48;7.83;;;5.97;;
7205;SDS011;3644;53.480;10.004;2023-08-31T03:17:14;6.97;;;5.57;;
7205;SDS011;3644;53.480;10.004;2023-08-31T03:19:39;8.00;;;5.57;;
7205;SDS011;3644;53.480;10.004;2023-08-31T03:22:05;10.10;;;4.70;;
7205;SDS011;3644;53.480;10.004;2023-08-31T03:24:31;7.60;;;5.37;;
7205;SDS011;3644;53.480;10.004;2023-08-31T03:26:57;7.43;;;4.87;;
7205;SDS011;3644;53.480;10.004;2023-08-31T03:29:23;7.00;;;5.30;;
7205;SDS011;3644;53.480;10.004;2023-08-31T03:31:48;6.50;;;4.73;;
7205;SDS011;3644;53.480;10.004;2023-08-31T03:34:14;8.70;;;3.80;;
7205;SDS011;3644;53.480;10.004;2023-08-31T03:36:40;8.40;;;4.20;;
7205;SDS011;3644;53.480;10.004;2023-08-31T03:39:06;6.37;;;4.97;;
7205;SDS011;3644;53.480;10.004;2023-08-31T03:41:31;4.03;;;3.70;;
7205;SDS011;3644;53.480;10.004;2023-08-31T03:43:57;9.83;;;4.53;;
7205;SDS011;3644;53.480;10.004;2023-08-31T03:46:22;7.93;;;3.63;;
7205;SDS011;3644;53.480;10.004;2023-08-31T03:48:49;16.80;;;4.30;;
7205;SDS011;3644;53.480;10.004;2023-08-31T03:51:14;6.63;;;3.70;;
7205;SDS011;3644;53.480;10.004;2023-08-31T03:53:40;3.80;;;3.03;;
7205;SDS011;3644;53.480;10.004;2023-08-31T03:56:05;10.73;;;4.10;;
7205;SDS011;3644;53.480;10.004;2023-08-31T03:58:31;8.63;;;3.70;;
7205;SDS011;3644;53.480;10.004;2023-08-31T04:00:56;5.10;;;3.23;;
7205;SDS011;3644;53.480;10.004;2023-08-31T04:03:22;6.70;;;3.17;;
7205;SDS011;3644;53.480;10.004;2023-08-31T04:05:48;7.60;;;2.97;;
7205;SDS011;3644;53.480;10.004;2023-08-31T04:08:19;6.30;;;3.80;;
7205;SDS011;3644;53.480;10.004;2023-08-31T04:10:44;5.30;;;3.07;;
7205;SDS011;3644;53.480;10.004;2023-08-31T04:13:10;6.20;;;3.07;;
7205;SDS011;3644;53.480;10.004;2023-08-31T04:15:35;7.30;;;3.83;;
7205;SDS011;3644;53.480;10.004;2023-08-31T04:18:01;5.40;;;3.43;;
7205;SDS011;3644;53.480;10.004;2023-08-31T04:20:27;6.23;;;2.97;;
7205;SDS011;3644;53.480;10.004;2023-08-31T04:22:53;3.17;;;2.87;;
7205;SDS011;3644;53.480;10.004;2023-08-31T04:25:18;5.53;;;3.23;;
7205;SDS011;3644;53.480;10.004;2023-08-31T04:27:44;5.60;;;3.50;;
7205;SDS011;3644;53.480;10.004;2023-08-31T04:30:10;8.03;;;3.20;;
7205;SDS011;3644;53.480;10.004;2023-08-31T04:32:36;4.67;;;3.53;;
7205;SDS011;3644;53.480;10.004;2023-08-31T04:35:03;6.10;;;3.40;;
7205;SDS011;3644;53.480;10.004;2023-08-31T04:37:30;4.87;;;3.30;;
7205;SDS011;3644;53.480;10.004;2023-08-31T04:39:56;4.37;;;3.27;;
7205;SDS011;3644;53.480;10.004;2023-08-31T04:42:22;10.67;;;4.57;;
7205;SDS011;3644;53.480;10.004;2023-08-31T04:44:48;7.53;;;3.10;;
7205;SDS011;3644;53.480;10.004;2023-08-31T04:47:14;5.70;;;3.27;;
7205;SDS011;3644;53.480;10.004;2023-08-31T04:49:40;5.10;;;3.13;;
7205;SDS011;3644;53.480;10.004;2023-08-31T04:52:05;9.43;;;3.50;;
7205;SDS011;3644;53.480;10.004;2023-08-31T04:54:31;5.10;;;4.07;;
7205;SDS011;3644;53.480;10.004;2023-08-31T04:56:56;4.17;;;3.60;;
7205;SDS011;3644;53.480;10.004;2023-08-31T04:59:22;8.60;;;4.30;;
7205;SDS011;3644;53.480;10.004;2023-08-31T05:01:47;10.83;;;5.10;;
7205;SDS011;3644;53.480;10.004;2023-08-31T05:04:12;10.43;;;4.87;;
7205;SDS011;3644;53.480;10.004;2023-08-31T05:06:38;7.10;;;5.40;;
7205;SDS011;3644;53.480;10.004;2023-08-31T05:09:03;6.83;;;5.30;;
7205;SDS011;3644;53.480;10.004;2023-08-31T05:11:30;8.80;;;5.30;;
7205;SDS011;3644;53.480;10.004;2023-08-31T05:13:56;5.10;;;4.47;;
7205;SDS011;3644;53.480;10.004;2023-08-31T05:16:22;7.97;;;5.00;;
7205;SDS011;3644;53.480;10.004;2023-08-31T05:18:48;8.03;;;5.77;;
7205;SDS011;3644;53.480;10.004;2023-08-31T05:21:14;6.47;;;4.87;;
7205;SDS011;3644;53.480;10.004;2023-08-31T05:23:39;7.33;;;5.30;;
7205;SDS011;3644;53.480;10.004;2023-08-31T05:26:05;9.67;;;4.90;;
7205;SDS011;3644;53.480;10.004;2023-08-31T05:28:30;8.63;;;4.33;;
7205;SDS011;3644;53.480;10.004;2023-08-31T05:30:56;4.90;;;4.40;;
7205;SDS011;3644;53.480;10.004;2023-08-31T05:33:23;9.47;;;4.20;;
7205;SDS011;3644;53.480;10.004;2023-08-31T05:35:50;6.30;;;4.23;;
7205;SDS011;3644;53.480;10.004;2023-08-31T05:38:16;7.93;;;4.10;;
7205;SDS011;3644;53.480;10.004;2023-08-31T05:40:41;10.20;;;4.33;;
7205;SDS011;3644;53.480;10.004;2023-08-31T05:43:10;11.60;;;3.90;;
7205;SDS011;3644;53.480;10.004;2023-08-31T05:45:36;7.57;;;3.70;;
7205;SDS011;3644;53.480;10.004;2023-08-31T05:48:02;4.83;;;3.37;;
7205;SDS011;3644;53.480;10.004;2023-08-31T05:50:27;6.50;;;3.47;;
7205;SDS011;3644;53.480;10.004;2023-08-31T05:52:53;6.63;;;4.07;;
7205;SDS011;3644;53.480;10.004;2023-08-31T05:55:19;10.57;;;3.10;;
7205;SDS011;3644;53.480;10.004;2023-08-31T05:57:45;4.30;;;3.60;;
7205;SDS011;3644;53.480;10.004;2023-08-31T06:00:11;5.17;;;3.27;;
7205;SDS011;3644;53.480;10.004;2023-08-31T06:02:37;9.57;;;3.87;;
7205;SDS011;3644;53.480;10.004;2023-08-31T06:05:02;7.20;;;3.60;;
7205;SDS011;3644;53.480;10.004;2023-08-31T06:07:29;5.97;;;3.53;;
7205;SDS011;3644;53.480;10.004;2023-08-31T06:09:55;6.10;;;3.27;;
7205;SDS011;3644;53.480;10.004;2023-08-31T06:12:21;7.87;;;3.07;;
7205;SDS011;3644;53.480;10.004;2023-08-31T06:14:47;3.93;;;3.23;;
7205;SDS011;3644;53.480;10.004;2023-08-31T06:17:12;16.53;;;3.43;;
7205;SDS011;3644;53.480;10.004;2023-08-31T06:19:38;5.00;;;3.47;;
7205;SDS011;3644;53.480;10.004;2023-08-31T06:22:04;7.63;;;3.00;;
7205;SDS011;3644;53.480;10.004;2023-08-31T06:24:30;12.00;;;3.00;;
7205;SDS011;3644;53.480;10.004;2023-08-31T06:26:55;5.13;;;3.07;;
7205;SDS011;3644;53.480;10.004;2023-08-31T06:29:21;7.60;;;3.73;;
7205;SDS011;3644;53.480;10.004;2023-08-31T06:31:47;7.70;;;3.50;;
7205;SDS011;3644;53.480;10.004;2023-08-31T06:34:13;11.37;;;3.50;;
7205;SDS011;3644;53.480;10.004;2023-08-31T06:36:38;7.27;;;3.70;;
7205;SDS011;3644;53.480;10.004;2023-08-31T06:39:04;8.20;;;3.40;;
7205;SDS011;3644;53.480;10.004;2023-08-31T06:41:30;3.93;;;2.50;;
7205;SDS011;3644;53.480;10.004;2023-08-31T06:43:56;5.43;;;3.10;;
7205;SDS011;3644;53.480;10.004;2023-08-31T06:46:21;7.70;;;3.50;;
7205;SDS011;3644;53.480;10.004;2023-08-31T06:48:47;5.63;;;3.83;;
7205;SDS011;3644;53.480;10.004;2023-08-31T06:51:13;4.40;;;3.90;;
7205;SDS011;3644;53.480;10.004;2023-08-31T06:53:39;3.37;;;2.73;;
7205;SDS011;3644;53.480;10.004;2023-08-31T06:56:06;3.33;;;2.53;;
7205;SDS011;3644;53.480;10.004;2023-08-31T06:58:32;4.10;;;2.90;;
7205;SDS011;3644;53.480;10.004;2023-08-31T07:00:57;4.20;;;2.10;;
7205;SDS011;3644;53.480;10.004;2023-08-31T07:03:23;3.37;;;2.30;;
7205;SDS011;3644;53.480;10.004;2023-08-31T07:05:49;3.47;;;2.47;;
7205;SDS011;3644;53.480;10.004;2023-08-31T07:08:14;5.67;;;2.20;;
7205;SDS011;3644;53.480;10.004;2023-08-31T07:10:40;4.87;;;2.23;;
7205;SDS011;3644;53.480;10.004;2023-08-31T07:13:05;4.73;;;1.77;;
7205;SDS011;3644;53.480;10.004;2023-08-31T07:15:31;4.63;;;2.10;;
7205;SDS011;3644;53.480;10.004;2023-08-31T07:17:57;2.23;;;1.80;;
7205;SDS011;3644;53.480;10.004;2023-08-31T07:20:22;1.80;;;1.70;;
7205;SDS011;3644;53.480;10.004;2023-08-31T07:22:48;7.53;;;2.20;;
7205;SDS011;3644;53.480;10.004;2023-08-31T07:25:13;5.30;;;2.43;;
7205;SDS011;3644;53.480;10.004;2023-08-31T07:27:39;5.60;;;2.40;;
7205;SDS011;3644;53.480;10.004;2023-08-31T07:30:05;2.60;;;1.97;;
7205;SDS011;3644;53.480;10.004;2023-08-31T07:32:31;1.97;;;1.80;;
7205;SDS011;3644;53.480;10.004;2023-08-31T07:34:57;4.40;;;2.10;;
7205;SDS011;3644;53.480;10.004;2023-08-31T07:37:22;10.13;;;2.27;;
7205;SDS011;3644;53.480;10.004;2023-08-31T07:39:48;11.33;;;3.07;;
7205;SDS011;3644;53.480;10.004;2023-08-31T07:42:13;2.90;;;1.90;;
7205;SDS011;3644;53.480;10.004;2023-08-31T07:44:39;5.93;;;1.80;;
7205;SDS011;3644;53.480;10.004;2023-08-31T07:47:06;1.80;;;1.67;;
7205;SDS011;3644;53.480;10.004;2023-08-31T07:49:32;2.70;;;1.73;;
7205;SDS011;3644;53.480;10.004;2023-08-31T07:51:58;1.77;;;1.50;;
7205;SDS011;3644;53.480;10.004;2023-08-31T07:54:23;1.63;;;1.53;;
7205;SDS011;3644;53.480;10.004;2023-08-31T07:56:49;4.50;;;1.77;;
7205;SDS011;3644;53.480;10.004;2023-08-31T07:59:16;2.10;;;1.43;;
7205;SDS011;3644;53.480;10.004;2023-08-31T08:01:42;2.50;;;1.73;;
7205;SDS011;3644;53.480;10.004;2023-08-31T08:04:08;5.77;;;2.00;;
7205;SDS011;3644;53.480;10.004;2023-08-31T08:06:33;2.00;;;1.50;;
7205;SDS011;3644;53.480;10.004;2023-08-31T08:08:59;3.77;;;2.20;;
7205;SDS011;3644;53.480;10.004;2023-08-31T08:11:24;7.20;;;1.90;;
7205;SDS011;3644;53.480;10.004;2023-08-31T08:13:50;3.63;;;2.10;;
7205;SDS011;3644;53.480;10.004;2023-08-31T08:16:15;6.73;;;2.30;;
7205;SDS011;3644;53.480;10.004;2023-08-31T08:18:41;2.97;;;2.17;;
7205;SDS011;3644;53.480;10.004;2023-08-31T08:21:06;1.70;;;1.60;;
7205;SDS011;3644;53.480;10.004;2023-08-31T08:23:32;2.00;;;1.90;;
7205;SDS011;3644;53.480;10.004;2023-08-31T08:25:58;3.00;;;1.80;;
7205;SDS011;3644;53.480;10.004;2023-08-31T08:28:26;1.80;;;1.37;;
7205;SDS011;3644;53.480;10.004;2023-08-31T08:30:52;3.57;;;1.50;;
7205;SDS011;3644;53.480;10.004;2023-08-31T08:33:17;3.83;;;1.50;;
7205;SDS011;3644;53.480;10.004;2023-08-31T08:35:43;5.17;;;1.60;;
7205;SDS011;3644;53.480;10.004;2023-08-31T08:38:08;2.60;;;1.87;;
7205;SDS011;3644;53.480;10.004;2023-08-31T08:40:34;7.57;;;2.30;;
7205;SDS011;3644;53.480;10.004;2023-08-31T08:43:00;4.23;;;1.90;;
7205;SDS011;3644;53.480;10.004;2023-08-31T08:45:27;2.27;;;1.83;;
7205;SDS011;3644;53.480;10.004;2023-08-31T08:47:58;2.00;;;1.80;;
7205;SDS011;3644;53.480;10.004;2023-08-31T08:50:24;2.30;;;2.10;;
7205;SDS011;3644;53.480;10.004;2023-08-31T08:52:50;4.07;;;2.33;;
7205;SDS011;3644;53.480;10.004;2023-08-31T08:55:16;5.60;;;2.87;;
7205;SDS011;3644;53.480;10.004;2023-08-31T08:57:43;6.53;;;2.27;;
7205;SDS011;3644;53.480;10.004;2023-08-31T09:00:09;3.43;;;2.47;;
7205;SDS011;3644;53.480;10.004;2023-08-31T09:02:35;8.97;;;2.83;;
7205;SDS011;3644;53.480;10.004;2023-08-31T09:05:01;3.23;;;2.07;;
7205;SDS011;3644;53.480;10.004;2023-08-31T09:07:29;2.17;;;2.03;;
7205;SDS011;3644;53.480;10.004;2023-08-31T09:09:55;3.57;;;2.40;;
7205;SDS011;3644;53.480;10.004;2023-08-31T09:12:21;5.77;;;2.30;;
7205;SDS011;3644;53.480;10.004;2023-08-31T09:17:37;2.20;;;2.00;;
7205;SDS011;3644;53.480;10.004;2023-08-31T09:20:04;2.13;;;1.90;;
7205;SDS011;3644;53.480;10.004;2023-08-31T09:22:31;4.77;;;2.20;;
7205;SDS011;3644;53.480;10.004;2023-08-31T09:24:57;3.27;;;2.00;;
7205;SDS011;3644;53.480;10.004;2023-08-31T09:27:23;4.50;;;2.40;;
7205;SDS011;3644;53.480;10.004;2023-08-31T09:29:49;4.03;;;2.30;;
7205;SDS011;3644;53.480;10.004;2023-08-31T09:32:16;6.27;;;2.50;;
7205;SDS011;3644;53.480;10.004;2023-08-31T09:34:42;3.90;;;2.47;;
7205;SDS011;3644;53.480;10.004;2023-08-31T09:37:08;2.63;;;2.40;;
7205;SDS011;3644;53.480;10.004;2023-08-31T09:39:40;2.87;;;2.20;;
7205;SDS011;3644;53.480;10.004;2023-08-31T09:42:06;6.53;;;3.20;;
7205;SDS011;3644;53.480;10.004;2023-08-31T09:44:32;9.37;;;2.80;;
7205;SDS011;3644;53.480;10.004;2023-08-31T09:46:57;7.50;;;2.20;;
7205;SDS011;3644;53.480;10.004;2023-08-31T09:49:23;5.90;;;2.53;;
7205;SDS011;3644;53.480;10.004;2023-08-31T09:51:50;2.10;;;1.83;;
7205;SDS011;3644;53.480;10.004;2023-08-31T09:54:17;2.30;;;2.10;;
7205;SDS011;3644;53.480;10.004;2023-08-31T09:56:44;2.70;;;2.10;;
7205;SDS011;3644;53.480;10.004;2023-08-31T09:59:12;5.60;;;2.20;;
7205;SDS011;3644;53.480;10.004;2023-08-31T10:01:38;3.33;;;2.27;;
7205;SDS011;3644;53.480;10.004;2023-08-31T10:04:05;2.60;;;1.77;;
7205;SDS011;3644;53.480;10.004;2023-08-31T10:06:33;7.50;;;3.00;;
7205;SDS011;3644;53.480;10.004;2023-08-31T10:09:01;5.47;;;2.30;;
7205;SDS011;3644;53.480;10.004;2023-08-31T10:11:27;9.00;;;2.83;;
7205;SDS011;3644;53.480;10.004;2023-08-31T10:13:54;3.10;;;2.70;;
7205;SDS011;3644;53.480;10.004;2023-08-31T10:16:20;6.50;;;2.50;;
7205;SDS011;3644;53.480;10.004;2023-08-31T10:18:46;2.30;;;2.10;;
7205;SDS011;3644;53.480;10.004;2023-08-31T10:21:16;2.53;;;2.13;;
7205;SDS011;3644;53.480;10.004;2023-08-31T10:23:48;3.13;;;2.83;;
7205;SDS011;3644;53.480;10.004;2023-08-31T10:26:24;8.27;;;2.30;;
7205;SDS011;3644;53.480;10.004;2023-08-31T10:28:49;2.27;;;1.90;;
7205;SDS011;3644;53.480;10.004;2023-08-31T10:31:16;5.40;;;2.47;;
7205;SDS011;3644;53.480;10.004;2023-08-31T10:33:43;3.30;;;2.30;;
7205;SDS011;3644;53.480;10.004;2023-08-31T10:36:13;4.43;;;2.10;;
7205;SDS011;3644;53.480;10.004;2023-08-31T10:38:41;3.37;;;2.03;;
7205;SDS011;3644;53.480;10.004;2023-08-31T10:51:22;4.63;;;2.60;;
7205;SDS011;3644;53.480;10.004;2023-08-31T10:53:49;1.80;;;1.70;;
7205;SDS011;3644;53.480;10.004;2023-08-31T10:56:18;4.20;;;2.57;;
7205;SDS011;3644;53.480;10.004;2023-08-31T10:58:59;5.47;;;2.50;;
7205;SDS011;3644;53.480;10.004;2023-08-31T11:04:16;1.60;;;1.50;;
7205;SDS011;3644;53.480;10.004;2023-08-31T11:06:42;2.60;;;1.83;;
7205;SDS011;3644;53.480;10.004;2023-08-31T11:09:17;2.13;;;1.87;;
7205;SDS011;3644;53.480;10.004;2023-08-31T11:11:46;3.33;;;2.60;;
7205;SDS011;3644;53.480;10.004;2023-08-31T11:14:13;4.70;;;2.10;;
7205;SDS011;3644;53.480;10.004;2023-08-31T11:16:40;3.10;;;1.67;;
7205;SDS011;3644;53.480;10.004;2023-08-31T11:19:06;2.30;;;2.10;;
7205;SDS011;3644;53.480;10.004;2023-08-31T11:21:32;2.67;;;2.47;;
7205;SDS011;3644;53.480;10.004;2023-08-31T11:23:58;2.40;;;1.87;;
7205;SDS011;3644;53.480;10.004;2023-08-31T11:26:26;3.17;;;1.80;;
7205;SDS011;3644;53.480;10.004;2023-08-31T11:28:55;3.37;;;1.93;;
7205;SDS011;3644;53.480;10.004;2023-08-31T11:31:24;2.43;;;2.07;;
7205;SDS011;3644;53.480;10.004;2023-08-31T11:33:50;2.07;;;1.87;;
7205;SDS011;3644;53.480;10.004;2023-08-31T11:36:15;2.03;;;1.83;;
7205;SDS011;3644;53.480;10.004;2023-08-31T11:38:44;3.83;;;1.80;;
7205;SDS011;3644;53.480;10.004;2023-08-31T11:41:09;4.40;;;2.10;;
7205;SDS011;3644;53.480;10.004;2023-08-31T11:43:35;1.63;;;1.50;;
7205;SDS011;3644;53.480;10.004;2023-08-31T11:46:02;1.37;;;1.37;;
7205;SDS011;3644;53.480;10.004;2023-08-31T11:48:29;2.60;;;1.43;;
7205;SDS011;3644;53.480;10.004;2023-08-31T11:50:55;2.03;;;1.87;;
7205;SDS011;3644;53.480;10.004;2023-08-31T11:53:21;1.50;;;1.40;;
7205;SDS011;3644;53.480;10.004;2023-08-31T11:55:50;2.90;;;2.20;;
7205;SDS011;3644;53.480;10.004;2023-08-31T11:58:17;1.77;;;1.60;;
7205;SDS011;3644;53.480;10.004;2023-08-31T12:00:43;1.80;;;1.60;;
7205;SDS011;3644;53.480;10.004;2023-08-31T12:03:09;3.37;;;1.40;;
7205;SDS011;3644;53.480;10.004;2023-08-31T12:05:44;1.30;;;1.20;;
7205;SDS011;3644;53.480;10.004;2023-08-31T12:08:10;1.90;;;1.40;;
7205;SDS011;3644;53.480;10.004;2023-08-31T12:10:39;3.17;;;1.63;;
7205;SDS011;3644;53.480;10.004;2023-08-31T12:13:09;2.53;;;1.73;;
7205;SDS011;3644;53.480;10.004;2023-08-31T12:15:36;0.90;;;0.90;;
7205;SDS011;3644;53.480;10.004;2023-08-31T12:18:11;2.03;;;1.20;;
7205;SDS011;3644;53.480;10.004;2023-08-31T12:20:44;1.23;;;1.00;;
7205;SDS011;3644;53.480;10.004;2023-08-31T12:23:17;2.63;;;1.20;;
7205;SDS011;3644;53.480;10.004;2023-08-31T12:25:48;1.20;;;1.13;;
7205;SDS011;3644;53.480;10.004;2023-08-31T12:28:14;2.00;;;0.80;;
7205;SDS011;3644;53.480;10.004;2023-08-31T12:30:42;1.63;;;1.03;;
7205;SDS011;3644;53.480;10.004;2023-08-31T12:33:11;1.90;;;1.20;;
7205;SDS011;3644;53.480;10.004;2023-08-31T12:35:36;1.23;;;1.13;;
7205;SDS011;3644;53.480;10.004;2023-08-31T12:38:02;1.37;;;1.27;;
7205;SDS011;3644;53.480;10.004;2023-08-31T12:40:28;1.17;;;0.90;;
7205;SDS011;3644;53.480;10.004;2023-08-31T12:42:54;3.83;;;1.20;;
7205;SDS011;3644;53.480;10.004;2023-08-31T12:45:20;3.57;;;1.20;;
7205;SDS011;3644;53.480;10.004;2023-08-31T12:47:45;1.27;;;0.80;;
7205;SDS011;3644;53.480;10.004;2023-08-31T12:50:11;2.17;;;1.37;;
7205;SDS011;3644;53.480;10.004;2023-08-31T12:52:36;1.53;;;0.80;;
7205;SDS011;3644;53.480;10.004;2023-08-31T12:55:09;1.77;;;1.00;;
7205;SDS011;3644;53.480;10.004;2023-08-31T12:57:35;0.90;;;0.90;;
7205;SDS011;3644;53.480;10.004;2023-08-31T13:00:00;2.00;;;0.73;;
7205;SDS011;3644;53.480;10.004;2023-08-31T13:02:28;4.43;;;0.70;;
7205;SDS011;3644;53.480;10.004;2023-08-31T13:04:53;0.80;;;0.80;;
7205;SDS011;3644;53.480;10.004;2023-08-31T13:07:19;0.80;;;0.80;;
7205;SDS011;3644;53.480;10.004;2023-08-31T13:09:44;1.03;;;0.90;;
7205;SDS011;3644;53.480;10.004;2023-08-31T13:12:10;1.00;;;1.00;;
7205;SDS011;3644;53.480;10.004;2023-08-31T13:14:36;0.70;;;0.70;;
7205;SDS011;3644;53.480;10.004;2023-08-31T13:17:02;0.83;;;0.70;;
7205;SDS011;3644;53.480;10.004;2023-08-31T13:19:28;1.33;;;1.07;;
7205;SDS011;3644;53.480;10.004;2023-08-31T13:21:54;0.70;;;0.70;;
7205;SDS011;3644;53.480;10.004;2023-08-31T13:24:19;1.30;;;1.20;;
7205;SDS011;3644;53.480;10.004;2023-08-31T13:26:46;4.10;;;0.93;;
7205;SDS011;3644;53.480;10.004;2023-08-31T13:29:13;2.13;;;1.17;;
7205;SDS011;3644;53.480;10.004;2023-08-31T13:31:39;1.17;;;0.87;;
7205;SDS011;3644;53.480;10.004;2023-08-31T13:34:04;0.77;;;0.77;;
7205;SDS011;3644;53.480;10.004;2023-08-31T13:36:32;0.70;;;0.70;;
7205;SDS011;3644;53.480;10.004;2023-08-31T13:38:59;0.80;;;0.80;;
7205;SDS011;3644;53.480;10.004;2023-08-31T13:41:24;1.10;;;0.90;;
7205;SDS011;3644;53.480;10.004;2023-08-31T13:43:50;1.13;;;0.97;;
7205;SDS011;3644;53.480;10.004;2023-08-31T13:46:16;2.50;;;1.00;;
7205;SDS011;3644;53.480;10.004;2023-08-31T13:48:42;1.90;;;0.87;;
7205;SDS011;3644;53.480;10.004;2023-08-31T13:51:07;1.73;;;0.87;;
7205;SDS011;3644;53.480;10.004;2023-08-31T13:53:33;1.13;;;0.70;;
7205;SDS011;3644;53.480;10.004;2023-08-31T13:55:59;1.00;;;0.83;;
7205;SDS011;3644;53.480;10.004;2023-08-31T13:58:24;0.83;;;0.80;;
7205;SDS011;3644;53.480;10.004;2023-08-31T14:00:50;1.80;;;0.80;;
7205;SDS011;3644;53.480;10.004;2023-08-31T14:03:16;2.00;;;0.73;;
7205;SDS011;3644;53.480;10.004;2023-08-31T14:05:42;1.47;;;0.87;;
7205;SDS011;3644;53.480;10.004;2023-08-31T14:08:07;1.00;;;0.83;;
7205;SDS011;3644;53.480;10.004;2023-08-31T14:10:33;1.43;;;0.90;;
7205;SDS011;3644;53.480;10.004;2023-08-31T14:12:58;0.70;;;0.70;;
7205;SDS011;3644;53.480;10.004;2023-08-31T14:15:24;0.90;;;0.80;;
7205;SDS011;3644;53.480;10.004;2023-08-31T14:17:50;1.73;;;0.80;;
7205;SDS011;3644;53.480;10.004;2023-08-31T14:20:18;0.80;;;0.80;;
7205;SDS011;3644;53.480;10.004;2023-08-31T14:22:43;1.17;;;1.07;;
7205;SDS011;3644;53.480;10.004;2023-08-31T14:25:10;1.40;;;0.90;;
7205;SDS011;3644;53.480;10.004;2023-08-31T14:27:36;0.80;;;0.80;;
7205;SDS011;3644;53.480;10.004;2023-08-31T14:30:02;0.70;;;0.70;;
7205;SDS011;3644;53.480;10.004;2023-08-31T14:32:29;0.80;;;0.70;;
7205;SDS011;3644;53.480;10.004;2023-08-31T14:34:55;3.10;;;1.10;;
7205;SDS011;3644;53.480;10.004;2023-08-31T14:37:20;2.60;;;1.07;;
7205;SDS011;3644;53.480;10.004;2023-08-31T14:39:46;1.47;;;0.70;;
7205;SDS011;3644;53.480;10.004;2023-08-31T14:42:12;1.60;;;0.90;;
7205;SDS011;3644;53.480;10.004;2023-08-31T14:44:37;1.40;;;0.87;;
7205;SDS011;3644;53.480;10.004;2023-08-31T14:47:03;1.60;;;1.17;;
7205;SDS011;3644;53.480;10.004;2023-08-31T14:49:28;6.63;;;1.30;;
7205;SDS011;3644;53.480;10.004;2023-08-31T14:51:54;1.10;;;0.90;;
7205;SDS011;3644;53.480;10.004;2023-08-31T14:54:19;1.40;;;1.30;;
7205;SDS011;3644;53.480;10.004;2023-08-31T14:56:45;1.33;;;0.90;;
7205;SDS011;3644;53.480;10.004;2023-08-31T14:59:10;1.10;;;1.00;;
7205;SDS011;3644;53.480;10.004;2023-08-31T15:01:36;1.90;;;1.30;;
7205;SDS011;3644;53.480;10.004;2023-08-31T15:04:03;1.33;;;1.00;;
7205;SDS011;3644;53.480;10.004;2023-08-31T15:06:29;1.70;;;1.17;;
7205;SDS011;3644;53.480;10.004;2023-08-31T15:08:57;3.63;;;0.80;;
7205;SDS011;3644;53.480;10.004;2023-08-31T15:11:25;0.77;;;0.77;;
7205;SDS011;3644;53.480;10.004;2023-08-31T15:13:52;1.90;;;1.03;;
7205;SDS011;3644;53.480;10.004;2023-08-31T15:16:17;0.70;;;0.70;;
7205;SDS011;3644;53.480;10.004;2023-08-31T15:18:43;2.50;;;0.80;;
7205;SDS011;3644;53.480;10.004;2023-08-31T15:21:09;2.20;;;0.90;;